Kang Sheng — VRXL3 — position and weather

sailwx.info

Track history (hours):
 
Tides and Currents Weather Stations Pressure Air Temp Water Temp Dewpoint Dewpoint Depression Visibility Wind Speed Wind Dir Waves Ship Positions

Kang Sheng

Last reported at 2015-Feb-25 10:25 UTC. Time now 2015-Mar-06 17:34 UTC.
Position S 29°49' E 031°52'.
Warning: this ship's position is 9 days out of date.

Length 190 m; draft 6.5 m.

Type: Cargo ship. MMSI: 477977000.

Date/timePositionNaut miles runAvg speedWind from/ knotsBaromVisibWave heightAir tempDewpointWater temp
2015-Feb-25 10:25S 29°49' E 031°52'1011.8
2015-Feb-25 09:33S 29°49' E 031°40'1211.9
2015-Feb-25 08:33S 29°50' E 031°27'1212.3
2015-Feb-25 07:33S 29°51' E 031°13'9 8.9
2015-Feb-25 06:33S 29°53' E 031°03'1 0.6
2015-Feb-25 05:25S 29°52' E 031°02'0 0.0
2015-Feb-25 04:31S 29°52' E 031°02'0 0.0
2015-Feb-25 03:31S 29°52' E 031°02'0 0.0
2015-Feb-25 02:31S 29°52' E 031°02'0 0.0
2015-Feb-25 01:31S 29°52' E 031°02'0 0.0
2015-Feb-25 00:31S 29°52' E 031°02'0 0.0
2015-Feb-24 23:31S 29°52' E 031°02'0 0.0
2015-Feb-24 22:31S 29°52' E 031°02'0 0.0
2015-Feb-24 21:25S 29°52' E 031°02'0 0.0
2015-Feb-24 20:31S 29°52' E 031°02'0 0.0
2015-Feb-24 19:31S 29°52' E 031°02'0 0.0
2015-Feb-24 18:31S 29°52' E 031°02'0 0.0
2015-Feb-24 17:31S 29°52' E 031°02'0 0.0
2015-Feb-24 16:19S 29°52' E 031°02'0 0.0
2015-Feb-24 15:31S 29°52' E 031°02'0 0.0
2015-Feb-24 14:25S 29°52' E 031°02'0 0.0
2015-Feb-24 13:25S 29°52' E 031°02'3 3.6
2015-Feb-24 12:30S 29°50' E 031°05'2 2.0
2015-Feb-24 11:33S 29°49' E 031°07'4 3.5
2015-Feb-24 10:29S 29°47' E 031°11'0 0.0
2015-Feb-24 09:29S 29°47' E 031°11'0 0.0
2015-Feb-24 08:29S 29°47' E 031°11'0 0.0
2015-Feb-24 07:29S 29°47' E 031°11'0 0.0
2015-Feb-24 06:29S 29°47' E 031°11'0 0.0
2015-Feb-24 05:29S 29°47' E 031°11'0 0.0
2015-Feb-24 04:29S 29°47' E 031°11'0 0.0
2015-Feb-24 03:29S 29°47' E 031°11'1 1.5
2015-Feb-24 02:33S 29°48' E 031°09'4 3.7
2015-Feb-24 01:33S 29°50' E 031°06'6 6.0
2015-Feb-24 00:33S 29°56' E 031°06'10 9.6
2015-Feb-23 23:33S 30°05' E 031°02'10 9.6
2015-Feb-23 22:33S 30°14' E 030°57'229 9.9
2015-Feb-22 23:30S 33°09' E 028°05'2210.0
2015-Feb-22 21:14S 33°23' E 027°43'8 9.8
2015-Feb-22 20:26S 33°27' E 027°36'3311.0
2015-Feb-22 17:26S 33°45' E 027°02'2311.4
2015-Feb-22 15:26S 33°54' E 026°37'  
Track history (hours):
 
Tides and Currents Weather Stations Pressure Air Temp Water Temp Dewpoint Dewpoint Depression Visibility Wind Speed Wind Dir Waves Ship Positions

Kang Sheng

Last reported at 2015-Feb-25 10:25 UTC. Time now 2015-Mar-06 17:34 UTC.
Position S 29°49' E 031°52'.
Warning: this ship's position is 9 days out of date.

Length 190 m; draft 6.5 m.

Type: Cargo ship. MMSI: 477977000.

Date/timePositionNaut miles runAvg speedWind from/ knotsBaromVisibWave heightAir tempDewpointWater temp
2015-Feb-25 10:25S 29°49' E 031°52'1011.8
2015-Feb-25 09:33S 29°49' E 031°40'1211.9
2015-Feb-25 08:33S 29°50' E 031°27'1212.3
2015-Feb-25 07:33S 29°51' E 031°13'9 8.9
2015-Feb-25 06:33S 29°53' E 031°03'1 0.6
2015-Feb-25 05:25S 29°52' E 031°02'0 0.0
2015-Feb-25 04:31S 29°52' E 031°02'0 0.0
2015-Feb-25 03:31S 29°52' E 031°02'0 0.0
2015-Feb-25 02:31S 29°52' E 031°02'0 0.0
2015-Feb-25 01:31S 29°52' E 031°02'0 0.0
2015-Feb-25 00:31S 29°52' E 031°02'0 0.0
2015-Feb-24 23:31S 29°52' E 031°02'0 0.0
2015-Feb-24 22:31S 29°52' E 031°02'0 0.0
2015-Feb-24 21:25S 29°52' E 031°02'0 0.0
2015-Feb-24 20:31S 29°52' E 031°02'0 0.0
2015-Feb-24 19:31S 29°52' E 031°02'0 0.0
2015-Feb-24 18:31S 29°52' E 031°02'0 0.0
2015-Feb-24 17:31S 29°52' E 031°02'0 0.0
2015-Feb-24 16:19S 29°52' E 031°02'0 0.0
2015-Feb-24 15:31S 29°52' E 031°02'0 0.0
2015-Feb-24 14:25S 29°52' E 031°02'0 0.0
2015-Feb-24 13:25S 29°52' E 031°02'3 3.6
2015-Feb-24 12:30S 29°50' E 031°05'2 2.0
2015-Feb-24 11:33S 29°49' E 031°07'4 3.5
2015-Feb-24 10:29S 29°47' E 031°11'0 0.0
2015-Feb-24 09:29S 29°47' E 031°11'0 0.0
2015-Feb-24 08:29S 29°47' E 031°11'0 0.0
2015-Feb-24 07:29S 29°47' E 031°11'0 0.0
2015-Feb-24 06:29S 29°47' E 031°11'0 0.0
2015-Feb-24 05:29S 29°47' E 031°11'0 0.0
2015-Feb-24 04:29S 29°47' E 031°11'0 0.0
2015-Feb-24 03:29S 29°47' E 031°11'1 1.5
2015-Feb-24 02:33S 29°48' E 031°09'4 3.7
2015-Feb-24 01:33S 29°50' E 031°06'6 6.0
2015-Feb-24 00:33S 29°56' E 031°06'10 9.6
2015-Feb-23 23:33S 30°05' E 031°02'10 9.6
2015-Feb-23 22:33S 30°14' E 030°57'229 9.9
2015-Feb-22 23:30S 33°09' E 028°05'2210.0
2015-Feb-22 21:14S 33°23' E 027°43'8 9.8
2015-Feb-22 20:26S 33°27' E 027°36'3311.0
2015-Feb-22 17:26S 33°45' E 027°02'2311.4
2015-Feb-22 15:26S 33°54' E 026°37'  

Dump ship's entire track history